createdAt,value
2019-05-28T00:03:30.577Z,13.89
2019-05-28T00:08:33.002Z,13.74
2019-05-28T00:13:34.888Z,13.53
2019-05-28T00:18:39.084Z,13.52
2019-05-28T00:23:40.963Z,13.58
2019-05-28T00:28:42.935Z,13.45
2019-05-28T00:33:44.909Z,13.38
2019-05-28T00:38:46.625Z,13.45
2019-05-28T00:43:53.292Z,13.70
2019-05-28T00:48:55.144Z,14.03
2019-05-28T00:53:57.102Z,14.03
2019-05-28T00:58:59.397Z,14.02
2019-05-28T01:04:01.397Z,13.86
2019-05-28T01:09:05.376Z,14.24
2019-05-28T01:14:07.210Z,13.94
2019-05-28T01:19:09.001Z,13.95
2019-05-28T01:24:11.256Z,13.78
2019-05-28T01:29:12.947Z,13.76
2019-05-28T01:34:14.971Z,13.89
2019-05-28T01:39:16.782Z,13.92
2019-05-28T01:44:19.071Z,13.99
2019-05-28T01:49:20.764Z,13.86
2019-05-28T01:54:23.484Z,13.85
2019-05-28T01:59:25.284Z,13.97
2019-05-28T02:04:27.066Z,13.87
2019-05-28T02:09:28.860Z,13.95
2019-05-28T02:14:34.299Z,13.80
2019-05-28T02:19:38.752Z,13.74
2019-05-28T02:24:40.883Z,13.75
2019-05-28T02:29:42.802Z,13.68
2019-05-28T02:34:44.669Z,13.75
2019-05-28T02:39:46.479Z,13.90
2019-05-28T02:44:53.133Z,13.80
2019-05-28T02:49:57.796Z,13.71
2019-05-28T02:54:59.985Z,13.73
2019-05-28T03:00:03.076Z,13.65
2019-05-28T03:05:05.521Z,13.66
2019-05-28T03:10:07.307Z,13.85
2019-05-28T03:15:09.529Z,13.75
2019-05-28T03:20:11.437Z,13.59
2019-05-28T03:25:13.755Z,13.59
2019-05-28T03:30:15.549Z,13.62
2019-05-28T03:35:19.071Z,13.67
2019-05-28T03:40:34.161Z,13.67
2019-05-28T03:45:36.121Z,13.47
2019-05-28T03:50:37.924Z,13.51
2019-05-28T03:55:39.776Z,13.46
2019-05-28T04:00:41.583Z,13.51
2019-05-28T04:05:43.341Z,13.31
2019-05-28T04:10:45.040Z,13.56
2019-05-28T04:15:46.758Z,13.89
2019-05-28T04:20:50.757Z,13.79
2019-05-28T04:25:52.448Z,13.89
2019-05-28T04:30:54.169Z,13.97
2019-05-28T04:35:56.263Z,13.98
2019-05-28T04:40:57.960Z,13.95
2019-05-28T04:46:00.047Z,13.90
2019-05-28T04:51:01.876Z,13.87
2019-05-28T04:56:03.861Z,14.05
2019-05-28T05:01:08.242Z,13.94
2019-05-28T05:06:10.264Z,13.86
2019-05-28T05:11:12.064Z,13.72
2019-05-28T05:16:13.859Z,13.70
2019-05-28T05:21:15.671Z,13.36
2019-05-28T05:26:19.923Z,13.03
2019-05-28T05:31:21.657Z,13.55
2019-05-28T05:36:23.676Z,13.58
2019-05-28T05:41:25.490Z,13.56
2019-05-28T05:46:28.989Z,13.43
2019-05-28T05:51:30.798Z,13.44
2019-05-28T05:56:33.972Z,13.47
2019-05-28T06:01:35.697Z,14.91
2019-05-28T06:06:37.762Z,14.74
2019-05-28T06:11:39.579Z,14.71
2019-05-28T06:16:45.448Z,27.24
2019-05-28T06:21:49.122Z,14.25
2019-05-28T06:26:53.919Z,14.02
2019-05-28T06:31:57.020Z,13.88
2019-05-28T06:36:59.149Z,13.61
2019-05-28T06:42:00.932Z,24.85
2019-05-28T06:47:05.406Z,17.09
2019-05-28T06:52:07.089Z,15.45
2019-05-28T06:57:22.286Z,33.43
2019-05-28T07:02:12.631Z,33.59
2019-05-28T07:07:14.769Z,30.91
2019-05-28T07:12:18.147Z,37.86
2019-05-28T07:17:22.382Z,35.14
2019-05-28T07:22:24.419Z,30.44
2019-05-28T07:27:28.312Z,34.80
2019-05-28T07:32:32.724Z,37.60
2019-05-28T07:37:34.533Z,39.16
2019-05-28T07:42:37.560Z,25.51
2019-05-28T07:47:39.249Z,16.85
2019-05-28T07:52:41.124Z,24.77
2019-05-28T07:57:42.838Z,29.98
2019-05-28T08:02:46.999Z,33.11
2019-05-28T08:07:48.846Z,51.23
2019-05-28T08:12:50.737Z,24.15
2019-05-28T08:17:52.487Z,20.13
2019-05-28T08:22:56.729Z,17.18
2019-05-28T08:28:16.401Z,26.67
2019-05-28T08:33:02.532Z,18.40
2019-05-28T08:38:07.408Z,17.19
2019-05-28T08:43:09.349Z,19.45
2019-05-28T08:48:12.668Z,32.73
2019-05-28T08:53:14.719Z,16.57
2019-05-28T08:58:16.829Z,19.34
2019-05-28T09:03:18.645Z,20.67
2019-05-28T09:08:37.924Z,19.59
2019-05-28T09:13:25.283Z,18.40
2019-05-28T09:18:27.180Z,18.05
2019-05-28T09:23:29.104Z,18.21
2019-05-28T09:28:31.550Z,21.26
2019-05-28T09:33:33.697Z,21.26
2019-05-28T09:38:40.187Z,17.29
2019-05-28T09:43:42.347Z,16.30
2019-05-28T09:48:44.230Z,21.76
2019-05-28T09:53:46.197Z,20.78
2019-05-28T09:58:48.018Z,20.36
2019-05-28T10:03:49.843Z,20.82
2019-05-28T10:08:51.631Z,21.63
2019-05-28T10:13:53.338Z,22.22
2019-05-28T10:18:57.645Z,19.65
2019-05-28T10:24:02.080Z,21.56
2019-05-28T10:29:07.492Z,20.76
2019-05-28T10:34:09.439Z,19.47
2019-05-28T10:39:11.230Z,17.64
2019-05-28T10:44:13.053Z,20.34
2019-05-28T10:49:14.888Z,20.90
2019-05-28T10:54:16.731Z,19.80
2019-05-28T10:59:18.535Z,18.80
2019-05-28T11:04:20.330Z,20.07
2019-05-28T11:09:22.140Z,19.57
2019-05-28T11:14:23.978Z,20.03
2019-05-28T11:19:25.775Z,20.43
2019-05-28T11:24:27.655Z,19.63
2019-05-28T11:29:29.383Z,19.27
2019-05-28T11:34:33.592Z,19.66
2019-05-28T11:39:35.419Z,19.94
2019-05-28T11:44:37.474Z,19.86
2019-05-28T11:49:39.282Z,20.65
2019-05-28T11:54:41.103Z,20.05
2019-05-28T11:59:42.880Z,20.27
2019-05-28T12:04:44.707Z,19.97
2019-05-28T12:09:46.549Z,19.57
2019-05-28T12:14:48.405Z,19.30
2019-05-28T12:19:50.259Z,20.75
2019-05-28T12:24:51.979Z,21.28
2019-05-28T12:29:53.576Z,19.39
2019-05-28T12:34:58.301Z,20.94
2019-05-28T12:40:00.168Z,20.61
2019-05-28T12:45:09.562Z,20.56
2019-05-28T12:50:19.289Z,20.71
2019-05-28T12:55:13.160Z,21.70
2019-05-28T13:00:18.307Z,20.09
2019-05-28T13:05:22.817Z,21.43
2019-05-28T13:10:24.642Z,22.83
2019-05-28T13:15:26.530Z,21.34
2019-05-28T13:20:28.295Z,21.09
2019-05-28T13:25:30.295Z,21.90
2019-05-28T13:30:33.830Z,21.01
2019-05-28T13:35:35.787Z,22.07
2019-05-28T13:40:39.436Z,22.30
2019-05-28T13:45:41.296Z,21.99
2019-05-28T13:50:43.138Z,21.22
2019-05-28T13:55:46.726Z,21.37
2019-05-28T14:00:48.583Z,21.04
2019-05-28T14:05:50.390Z,20.31
2019-05-28T14:10:54.514Z,19.60
2019-05-28T14:15:56.434Z,20.70
2019-05-28T14:20:58.508Z,20.96
2019-05-28T14:26:00.389Z,20.64
2019-05-28T14:31:03.587Z,20.53
2019-05-28T14:36:05.685Z,20.02
2019-05-28T14:41:10.067Z,20.33
2019-05-28T14:46:12.131Z,19.92
2019-05-28T14:51:16.120Z,20.55
2019-05-28T14:56:18.213Z,21.79
2019-05-28T15:01:22.337Z,21.14
2019-05-28T15:06:27.208Z,20.76
2019-05-28T15:11:30.120Z,20.71
2019-05-28T15:16:31.978Z,21.06
2019-05-28T15:21:33.839Z,20.70
2019-05-28T15:26:35.995Z,20.49
2019-05-28T15:31:38.703Z,20.25
2019-05-28T15:36:40.410Z,20.67
2019-05-28T15:41:42.508Z,19.93
2019-05-28T15:46:44.223Z,20.27
2019-05-28T15:51:45.917Z,20.02
2019-05-28T15:56:47.940Z,19.55
2019-05-28T16:01:51.288Z,20.68
2019-05-28T16:06:55.394Z,20.54
2019-05-28T16:11:57.229Z,20.12
2019-05-28T16:16:59.183Z,20.52
2019-05-28T16:22:05.951Z,19.79
2019-05-28T16:27:08.026Z,20.08
2019-05-28T16:32:09.879Z,19.95
2019-05-28T16:37:12.893Z,19.92
2019-05-28T16:42:15.995Z,19.11
2019-05-28T16:47:22.185Z,19.98
2019-05-28T16:52:23.992Z,19.39
2019-05-28T16:57:26.750Z,19.43
2019-05-28T17:02:28.606Z,19.72
2019-05-28T17:07:30.440Z,19.28
2019-05-28T17:12:33.686Z,19.55
2019-05-28T17:17:39.246Z,19.96
2019-05-28T17:22:41.144Z,18.68
2019-05-28T17:27:42.952Z,19.45
2019-05-28T17:32:50.125Z,19.46
2019-05-28T17:37:51.916Z,19.61
2019-05-28T17:42:58.145Z,20.02
2019-05-28T17:48:00.016Z,19.17
2019-05-28T17:53:06.349Z,19.35
2019-05-28T17:58:08.160Z,19.09
2019-05-28T18:03:10.289Z,18.96
2019-05-28T18:08:12.118Z,19.08
2019-05-28T18:13:17.330Z,18.75
2019-05-28T18:18:20.065Z,18.91
2019-05-28T18:23:21.978Z,18.56
2019-05-28T18:28:23.907Z,18.09
2019-05-28T18:33:25.847Z,18.90
2019-05-28T18:38:27.682Z,18.61
2019-05-28T18:43:29.478Z,18.40
2019-05-28T18:48:31.318Z,18.54
2019-05-28T18:53:33.128Z,19.02
2019-05-28T18:58:35.843Z,18.36
2019-05-28T19:03:43.229Z,17.96
2019-05-28T19:08:47.970Z,17.94
2019-05-28T19:13:52.065Z,17.71
2019-05-28T19:18:55.396Z,18.31
2019-05-28T19:23:58.543Z,17.96
2019-05-28T19:29:00.361Z,17.65
2019-05-28T19:34:03.104Z,17.71
2019-05-28T19:39:06.076Z,17.88
2019-05-28T19:44:07.978Z,17.48
2019-05-28T19:49:09.762Z,17.41
2019-05-28T19:54:11.611Z,17.17
2019-05-28T19:59:15.776Z,17.44
2019-05-28T20:04:20.097Z,17.43
2019-05-28T20:09:21.892Z,17.12
2019-05-28T20:14:24.084Z,17.63
2019-05-28T20:19:30.888Z,17.27
2019-05-28T20:24:34.595Z,17.06
2019-05-28T20:29:36.572Z,17.30
2019-05-28T20:34:38.516Z,16.93
2019-05-28T20:39:40.564Z,16.84
2019-05-28T20:44:42.484Z,16.55
2019-05-28T20:49:44.346Z,16.75
2019-05-28T20:54:48.815Z,16.29
2019-05-28T20:59:51.491Z,16.25
2019-05-28T21:04:54.553Z,16.09
2019-05-28T21:09:56.544Z,16.03
2019-05-28T21:14:59.023Z,16.15
2019-05-28T21:20:00.902Z,15.86
2019-05-28T21:25:06.949Z,15.97
2019-05-28T21:30:09.562Z,15.76
2019-05-28T21:35:12.118Z,15.51
2019-05-28T21:40:14.335Z,15.71
2019-05-28T21:45:16.439Z,15.40
2019-05-28T21:50:19.136Z,15.16
2019-05-28T21:55:25.292Z,14.88
2019-05-28T22:00:47.812Z,14.63
2019-05-28T22:05:49.817Z,14.78
2019-05-28T22:10:51.688Z,14.55
2019-05-28T22:15:55.966Z,15.17
2019-05-28T22:20:58.178Z,15.45
2019-05-28T22:26:00.896Z,14.61
2019-05-28T22:31:03.842Z,14.65
2019-05-28T22:36:05.999Z,14.45
2019-05-28T22:41:08.605Z,14.27
2019-05-28T22:46:10.794Z,14.67
2019-05-28T22:51:12.604Z,14.11
2019-05-28T22:56:17.003Z,14.73
2019-05-28T23:01:18.827Z,14.34
2019-05-28T23:06:22.656Z,14.35
2019-05-28T23:11:24.586Z,14.45
2019-05-28T23:16:26.795Z,15.08
2019-05-28T23:21:28.511Z,14.42
2019-05-28T23:26:30.464Z,14.28
2019-05-28T23:31:32.316Z,14.22
2019-05-28T23:36:38.548Z,13.92
2019-05-28T23:41:40.406Z,13.47
2019-05-28T23:46:42.378Z,13.54
2019-05-28T23:51:44.347Z,13.67
2019-05-28T23:56:46.443Z,13.16
